sensor_id;sensor_type;location;lat;lon;timestamp;temperature;humidity
23377;DHT22;14353;46.070;13.222;2023-01-16T00:04:05;17.00;48.30
23377;DHT22;14353;46.070;13.222;2023-01-16T00:06:31;17.00;48.30
23377;DHT22;14353;46.070;13.222;2023-01-16T00:08:56;17.00;48.30
23377;DHT22;14353;46.070;13.222;2023-01-16T00:11:22;17.00;48.30
23377;DHT22;14353;46.070;13.222;2023-01-16T00:13:48;17.00;48.40
23377;DHT22;14353;46.070;13.222;2023-01-16T00:16:13;17.00;48.40
23377;DHT22;14353;46.070;13.222;2023-01-16T00:18:39;17.00;48.40
23377;DHT22;14353;46.070;13.222;2023-01-16T00:21:07;17.00;48.40
23377;DHT22;14353;46.070;13.222;2023-01-16T00:23:32;17.00;48.40
23377;DHT22;14353;46.070;13.222;2023-01-16T00:25:58;17.00;48.40
23377;DHT22;14353;46.070;13.222;2023-01-16T00:28:24;16.90;48.50
23377;DHT22;14353;46.070;13.222;2023-01-16T00:30:49;17.00;48.50
23377;DHT22;14353;46.070;13.222;2023-01-16T00:33:15;17.00;48.40
23377;DHT22;14353;46.070;13.222;2023-01-16T00:35:41;16.90;48.40
23377;DHT22;14353;46.070;13.222;2023-01-16T00:38:07;17.00;48.40
23377;DHT22;14353;46.070;13.222;2023-01-16T00:40:33;16.90;48.30
23377;DHT22;14353;46.070;13.222;2023-01-16T00:42:58;16.90;48.40
23377;DHT22;14353;46.070;13.222;2023-01-16T00:45:24;16.90;48.40
23377;DHT22;14353;46.070;13.222;2023-01-16T00:47:50;16.90;48.40
23377;DHT22;14353;46.070;13.222;2023-01-16T00:50:15;16.90;48.40
23377;DHT22;14353;46.070;13.222;2023-01-16T00:52:41;16.90;48.50
23377;DHT22;14353;46.070;13.222;2023-01-16T00:55:07;16.90;48.50
23377;DHT22;14353;46.070;13.222;2023-01-16T00:57:33;16.90;48.50
23377;DHT22;14353;46.070;13.222;2023-01-16T00:59:59;16.90;48.50
23377;DHT22;14353;46.070;13.222;2023-01-16T01:02:24;16.90;48.50
23377;DHT22;14353;46.070;13.222;2023-01-16T01:04:50;16.90;48.50
23377;DHT22;14353;46.070;13.222;2023-01-16T01:07:16;16.90;48.50
23377;DHT22;14353;46.070;13.222;2023-01-16T01:09:41;16.90;48.50
23377;DHT22;14353;46.070;13.222;2023-01-16T01:12:07;16.90;48.50
23377;DHT22;14353;46.070;13.222;2023-01-16T01:14:33;16.90;48.50
23377;DHT22;14353;46.070;13.222;2023-01-16T01:16:59;16.90;48.50
23377;DHT22;14353;46.070;13.222;2023-01-16T01:19:24;16.90;48.50
23377;DHT22;14353;46.070;13.222;2023-01-16T01:21:50;16.90;48.50
23377;DHT22;14353;46.070;13.222;2023-01-16T01:24:16;16.90;48.50
23377;DHT22;14353;46.070;13.222;2023-01-16T01:26:41;16.90;48.60
23377;DHT22;14353;46.070;13.222;2023-01-16T01:29:07;16.90;48.50
23377;DHT22;14353;46.070;13.222;2023-01-16T01:31:33;16.90;48.60
23377;DHT22;14353;46.070;13.222;2023-01-16T01:33:58;16.90;48.60
23377;DHT22;14353;46.070;13.222;2023-01-16T01:36:24;16.90;48.50
23377;DHT22;14353;46.070;13.222;2023-01-16T01:38:50;16.90;48.50
23377;DHT22;14353;46.070;13.222;2023-01-16T01:41:16;16.90;48.50
23377;DHT22;14353;46.070;13.222;2023-01-16T01:43:51;16.90;48.60
23377;DHT22;14353;46.070;13.222;2023-01-16T01:46:25;16.90;48.50
23377;DHT22;14353;46.070;13.222;2023-01-16T01:48:56;16.90;48.60
23377;DHT22;14353;46.070;13.222;2023-01-16T01:51:27;16.80;48.60
23377;DHT22;14353;46.070;13.222;2023-01-16T01:54:02;16.90;48.70
23377;DHT22;14353;46.070;13.222;2023-01-16T01:56:47;16.90;48.60
23377;DHT22;14353;46.070;13.222;2023-01-16T01:59:18;16.90;48.60
23377;DHT22;14353;46.070;13.222;2023-01-16T02:01:46;16.80;48.60
23377;DHT22;14353;46.070;13.222;2023-01-16T02:04:16;16.90;48.60
23377;DHT22;14353;46.070;13.222;2023-01-16T02:06:45;16.80;48.70
23377;DHT22;14353;46.070;13.222;2023-01-16T02:09:13;16.80;48.60
23377;DHT22;14353;46.070;13.222;2023-01-16T02:11:48;16.80;48.60
23377;DHT22;14353;46.070;13.222;2023-01-16T02:14:16;16.80;48.60
23377;DHT22;14353;46.070;13.222;2023-01-16T02:16:43;16.80;48.60
23377;DHT22;14353;46.070;13.222;2023-01-16T02:19:42;16.80;48.60
23377;DHT22;14353;46.070;13.222;2023-01-16T02:35:49;16.80;48.60
23377;DHT22;14353;46.070;13.222;2023-01-16T02:38:46;16.90;48.70
23377;DHT22;14353;46.070;13.222;2023-01-16T02:41:26;16.80;48.60
23377;DHT22;14353;46.070;13.222;2023-01-16T02:46:51;16.80;48.60
23377;DHT22;14353;46.070;13.222;2023-01-16T02:49:45;16.80;48.60
23377;DHT22;14353;46.070;13.222;2023-01-16T02:52:25;16.80;48.60
23377;DHT22;14353;46.070;13.222;2023-01-16T02:55:28;16.80;48.60
23377;DHT22;14353;46.070;13.222;2023-01-16T02:57:57;16.80;48.70
23377;DHT22;14353;46.070;13.222;2023-01-16T03:00:24;16.80;48.60
23377;DHT22;14353;46.070;13.222;2023-01-16T03:02:50;16.80;48.70
23377;DHT22;14353;46.070;13.222;2023-01-16T03:05:16;16.80;48.70
23377;DHT22;14353;46.070;13.222;2023-01-16T03:10:41;16.80;48.70
23377;DHT22;14353;46.070;13.222;2023-01-16T03:13:18;16.80;48.70
23377;DHT22;14353;46.070;13.222;2023-01-16T03:21:53;16.80;48.70
23377;DHT22;14353;46.070;13.222;2023-01-16T03:24:15;16.80;48.80
23377;DHT22;14353;46.070;13.222;2023-01-16T03:26:48;16.80;48.80
23377;DHT22;14353;46.070;13.222;2023-01-16T03:29:59;16.80;48.80
23377;DHT22;14353;46.070;13.222;2023-01-16T03:32:35;16.70;48.70
23377;DHT22;14353;46.070;13.222;2023-01-16T03:35:28;16.80;48.70
23377;DHT22;14353;46.070;13.222;2023-01-16T03:37:57;16.80;48.80
23377;DHT22;14353;46.070;13.222;2023-01-16T03:40:28;16.70;48.70
23377;DHT22;14353;46.070;13.222;2023-01-16T03:48:13;16.80;48.70
23377;DHT22;14353;46.070;13.222;2023-01-16T03:50:46;16.80;48.80
23377;DHT22;14353;46.070;13.222;2023-01-16T03:53:14;16.70;48.70
23377;DHT22;14353;46.070;13.222;2023-01-16T03:58:36;16.70;48.70
23377;DHT22;14353;46.070;13.222;2023-01-16T04:07:24;16.70;48.80
23377;DHT22;14353;46.070;13.222;2023-01-16T04:09:58;16.70;48.80
23377;DHT22;14353;46.070;13.222;2023-01-16T04:12:31;16.70;48.80
23377;DHT22;14353;46.070;13.222;2023-01-16T04:15:01;16.70;48.70
23377;DHT22;14353;46.070;13.222;2023-01-16T04:17:28;16.70;48.70
23377;DHT22;14353;46.070;13.222;2023-01-16T04:19:55;16.70;48.80
23377;DHT22;14353;46.070;13.222;2023-01-16T04:22:23;16.70;48.80
23377;DHT22;14353;46.070;13.222;2023-01-16T04:24:51;16.70;48.80
23377;DHT22;14353;46.070;13.222;2023-01-16T04:27:18;16.70;48.80
23377;DHT22;14353;46.070;13.222;2023-01-16T04:29:44;16.70;48.80
23377;DHT22;14353;46.070;13.222;2023-01-16T04:32:10;16.70;48.80
23377;DHT22;14353;46.070;13.222;2023-01-16T04:34:36;16.70;48.70
23377;DHT22;14353;46.070;13.222;2023-01-16T04:37:02;16.70;48.60
23377;DHT22;14353;46.070;13.222;2023-01-16T04:39:28;16.70;48.60
23377;DHT22;14353;46.070;13.222;2023-01-16T04:41:54;16.80;48.60
23377;DHT22;14353;46.070;13.222;2023-01-16T04:44:19;16.80;48.50
23377;DHT22;14353;46.070;13.222;2023-01-16T04:46:45;16.80;48.60
23377;DHT22;14353;46.070;13.222;2023-01-16T04:49:11;16.80;48.50
23377;DHT22;14353;46.070;13.222;2023-01-16T04:51:37;16.70;48.50
23377;DHT22;14353;46.070;13.222;2023-01-16T04:54:05;16.80;48.50
23377;DHT22;14353;46.070;13.222;2023-01-16T04:56:31;16.80;48.50
23377;DHT22;14353;46.070;13.222;2023-01-16T04:58:57;16.80;48.50
23377;DHT22;14353;46.070;13.222;2023-01-16T05:01:23;16.80;48.50
23377;DHT22;14353;46.070;13.222;2023-01-16T05:03:48;16.80;48.50
23377;DHT22;14353;46.070;13.222;2023-01-16T05:06:17;16.80;48.40
23377;DHT22;14353;46.070;13.222;2023-01-16T05:08:43;16.80;48.40
23377;DHT22;14353;46.070;13.222;2023-01-16T05:11:09;16.80;48.40
23377;DHT22;14353;46.070;13.222;2023-01-16T05:13:34;16.80;48.40
23377;DHT22;14353;46.070;13.222;2023-01-16T05:16:00;16.80;48.40
23377;DHT22;14353;46.070;13.222;2023-01-16T05:18:26;16.90;48.50
23377;DHT22;14353;46.070;13.222;2023-01-16T05:20:52;16.90;48.50
23377;DHT22;14353;46.070;13.222;2023-01-16T05:23:18;16.90;48.50
23377;DHT22;14353;46.070;13.222;2023-01-16T05:25:43;16.90;48.50
23377;DHT22;14353;46.070;13.222;2023-01-16T05:28:09;16.90;48.50
23377;DHT22;14353;46.070;13.222;2023-01-16T05:30:36;16.90;48.50
23377;DHT22;14353;46.070;13.222;2023-01-16T05:33:02;16.90;48.50
23377;DHT22;14353;46.070;13.222;2023-01-16T05:35:30;16.90;48.50
23377;DHT22;14353;46.070;13.222;2023-01-16T05:37:55;16.90;48.50
23377;DHT22;14353;46.070;13.222;2023-01-16T05:40:21;16.90;48.50
23377;DHT22;14353;46.070;13.222;2023-01-16T05:42:47;17.00;48.50
23377;DHT22;14353;46.070;13.222;2023-01-16T05:45:14;17.00;48.50
23377;DHT22;14353;46.070;13.222;2023-01-16T05:47:39;17.00;48.50
23377;DHT22;14353;46.070;13.222;2023-01-16T05:50:05;17.00;48.50
23377;DHT22;14353;46.070;13.222;2023-01-16T05:52:31;17.00;48.50
23377;DHT22;14353;46.070;13.222;2023-01-16T05:54:57;16.90;48.40
23377;DHT22;14353;46.070;13.222;2023-01-16T05:57:23;17.00;48.50
23377;DHT22;14353;46.070;13.222;2023-01-16T05:59:50;17.00;48.50
23377;DHT22;14353;46.070;13.222;2023-01-16T06:02:17;17.00;48.50
23377;DHT22;14353;46.070;13.222;2023-01-16T06:04:43;17.00;48.50
23377;DHT22;14353;46.070;13.222;2023-01-16T06:07:10;17.00;48.40
23377;DHT22;14353;46.070;13.222;2023-01-16T06:09:35;17.00;48.40
23377;DHT22;14353;46.070;13.222;2023-01-16T06:12:18;17.00;48.40
23377;DHT22;14353;46.070;13.222;2023-01-16T06:14:45;17.00;48.40
23377;DHT22;14353;46.070;13.222;2023-01-16T06:17:11;17.00;48.40
23377;DHT22;14353;46.070;13.222;2023-01-16T06:19:42;17.00;48.40
23377;DHT22;14353;46.070;13.222;2023-01-16T06:22:07;17.00;48.40
23377;DHT22;14353;46.070;13.222;2023-01-16T06:24:33;17.00;48.40
23377;DHT22;14353;46.070;13.222;2023-01-16T06:26:59;17.00;48.40
23377;DHT22;14353;46.070;13.222;2023-01-16T06:29:25;17.00;48.30
23377;DHT22;14353;46.070;13.222;2023-01-16T06:31:50;17.00;48.50
23377;DHT22;14353;46.070;13.222;2023-01-16T06:34:16;17.10;48.70
23377;DHT22;14353;46.070;13.222;2023-01-16T06:36:42;17.10;49.00
23377;DHT22;14353;46.070;13.222;2023-01-16T06:39:11;17.10;49.20
23377;DHT22;14353;46.070;13.222;2023-01-16T06:41:37;17.10;49.40
23377;DHT22;14353;46.070;13.222;2023-01-16T06:44:03;17.10;49.50
23377;DHT22;14353;46.070;13.222;2023-01-16T06:46:29;17.10;49.60
23377;DHT22;14353;46.070;13.222;2023-01-16T06:48:54;17.10;49.70
23377;DHT22;14353;46.070;13.222;2023-01-16T06:51:20;17.20;49.90
23377;DHT22;14353;46.070;13.222;2023-01-16T06:53:46;17.20;50.00
23377;DHT22;14353;46.070;13.222;2023-01-16T06:56:12;17.20;50.00
23377;DHT22;14353;46.070;13.222;2023-01-16T06:58:37;17.20;50.00
23377;DHT22;14353;46.070;13.222;2023-01-16T07:01:03;17.20;50.00
23377;DHT22;14353;46.070;13.222;2023-01-16T07:03:30;17.30;50.00
23377;DHT22;14353;46.070;13.222;2023-01-16T07:05:56;17.30;50.00
23377;DHT22;14353;46.070;13.222;2023-01-16T07:08:22;17.30;50.10
23377;DHT22;14353;46.070;13.222;2023-01-16T07:10:50;17.30;50.10
23377;DHT22;14353;46.070;13.222;2023-01-16T07:13:16;17.30;50.30
23377;DHT22;14353;46.070;13.222;2023-01-16T07:15:47;17.30;50.40
23377;DHT22;14353;46.070;13.222;2023-01-16T07:18:32;17.30;50.80
23377;DHT22;14353;46.070;13.222;2023-01-16T07:21:16;17.40;51.10
23377;DHT22;14353;46.070;13.222;2023-01-16T07:24:06;17.40;51.40
23377;DHT22;14353;46.070;13.222;2023-01-16T07:26:35;17.40;51.80
23377;DHT22;14353;46.070;13.222;2023-01-16T07:29:02;17.40;52.00
23377;DHT22;14353;46.070;13.222;2023-01-16T07:31:30;17.40;52.00
23377;DHT22;14353;46.070;13.222;2023-01-16T07:33:57;17.50;52.00
23377;DHT22;14353;46.070;13.222;2023-01-16T07:36:23;17.50;51.90
23377;DHT22;14353;46.070;13.222;2023-01-16T07:38:48;17.50;51.90
23377;DHT22;14353;46.070;13.222;2023-01-16T07:41:14;17.60;51.90
23377;DHT22;14353;46.070;13.222;2023-01-16T07:43:40;17.60;51.90
23377;DHT22;14353;46.070;13.222;2023-01-16T07:46:06;17.60;51.90
23377;DHT22;14353;46.070;13.222;2023-01-16T07:48:32;17.70;52.00
23377;DHT22;14353;46.070;13.222;2023-01-16T07:50:59;17.70;51.90
23377;DHT22;14353;46.070;13.222;2023-01-16T07:53:27;17.70;52.00
23377;DHT22;14353;46.070;13.222;2023-01-16T07:55:56;17.70;52.10
23377;DHT22;14353;46.070;13.222;2023-01-16T07:58:22;17.70;51.90
23377;DHT22;14353;46.070;13.222;2023-01-16T08:00:51;17.80;52.00
23377;DHT22;14353;46.070;13.222;2023-01-16T08:03:17;17.80;52.10
23377;DHT22;14353;46.070;13.222;2023-01-16T08:05:43;17.80;52.00
23377;DHT22;14353;46.070;13.222;2023-01-16T08:08:09;17.80;52.10
23377;DHT22;14353;46.070;13.222;2023-01-16T08:10:36;17.80;52.30
23377;DHT22;14353;46.070;13.222;2023-01-16T08:13:02;17.90;52.60
23377;DHT22;14353;46.070;13.222;2023-01-16T08:15:28;17.90;52.50
23377;DHT22;14353;46.070;13.222;2023-01-16T08:17:54;17.90;52.40
23377;DHT22;14353;46.070;13.222;2023-01-16T08:20:20;17.80;52.30
23377;DHT22;14353;46.070;13.222;2023-01-16T08:22:48;17.80;52.30
23377;DHT22;14353;46.070;13.222;2023-01-16T08:25:21;17.90;52.30
23377;DHT22;14353;46.070;13.222;2023-01-16T08:27:48;17.90;52.40
23377;DHT22;14353;46.070;13.222;2023-01-16T08:30:15;17.90;52.30
23377;DHT22;14353;46.070;13.222;2023-01-16T08:32:41;17.90;52.30
23377;DHT22;14353;46.070;13.222;2023-01-16T08:35:08;18.00;52.30
23377;DHT22;14353;46.070;13.222;2023-01-16T08:37:35;18.00;52.20
23377;DHT22;14353;46.070;13.222;2023-01-16T08:40:00;18.00;52.10
23377;DHT22;14353;46.070;13.222;2023-01-16T08:42:27;18.00;52.10
23377;DHT22;14353;46.070;13.222;2023-01-16T08:45:12;18.00;52.30
23377;DHT22;14353;46.070;13.222;2023-01-16T08:47:57;18.00;52.30
23377;DHT22;14353;46.070;13.222;2023-01-16T08:50:42;18.10;52.20
23377;DHT22;14353;46.070;13.222;2023-01-16T08:53:27;18.10;52.20
23377;DHT22;14353;46.070;13.222;2023-01-16T08:55:53;18.10;52.10
23377;DHT22;14353;46.070;13.222;2023-01-16T08:58:19;18.10;52.10
23377;DHT22;14353;46.070;13.222;2023-01-16T09:00:48;18.10;52.00
23377;DHT22;14353;46.070;13.222;2023-01-16T09:03:14;18.10;52.00
23377;DHT22;14353;46.070;13.222;2023-01-16T09:05:43;18.20;52.00
23377;DHT22;14353;46.070;13.222;2023-01-16T09:08:09;18.10;52.00
23377;DHT22;14353;46.070;13.222;2023-01-16T09:10:35;18.10;51.90
23377;DHT22;14353;46.070;13.222;2023-01-16T09:13:02;18.20;52.00
23377;DHT22;14353;46.070;13.222;2023-01-16T09:15:46;18.10;51.90
23377;DHT22;14353;46.070;13.222;2023-01-16T09:18:12;18.20;52.00
23377;DHT22;14353;46.070;13.222;2023-01-16T09:20:38;18.20;52.00
23377;DHT22;14353;46.070;13.222;2023-01-16T09:23:04;18.20;51.90
23377;DHT22;14353;46.070;13.222;2023-01-16T09:25:31;18.20;51.90
23377;DHT22;14353;46.070;13.222;2023-01-16T09:27:59;18.20;51.90
23377;DHT22;14353;46.070;13.222;2023-01-16T09:30:27;18.20;51.90
23377;DHT22;14353;46.070;13.222;2023-01-16T09:32:53;18.20;51.90
23377;DHT22;14353;46.070;13.222;2023-01-16T09:35:18;18.20;51.90
23377;DHT22;14353;46.070;13.222;2023-01-16T09:37:45;18.20;51.90
23377;DHT22;14353;46.070;13.222;2023-01-16T09:40:20;18.20;51.90
23377;DHT22;14353;46.070;13.222;2023-01-16T09:45:32;18.20;51.90
23377;DHT22;14353;46.070;13.222;2023-01-16T09:48:12;18.20;51.80
23377;DHT22;14353;46.070;13.222;2023-01-16T09:50:43;18.30;51.80
23377;DHT22;14353;46.070;13.222;2023-01-16T09:53:18;18.30;51.80
23377;DHT22;14353;46.070;13.222;2023-01-16T09:56:19;18.30;51.80
23377;DHT22;14353;46.070;13.222;2023-01-16T10:02:18;18.30;51.80
23377;DHT22;14353;46.070;13.222;2023-01-16T10:04:46;18.30;51.80
23377;DHT22;14353;46.070;13.222;2023-01-16T10:12:32;18.30;51.50
23377;DHT22;14353;46.070;13.222;2023-01-16T10:26:35;18.40;52.90
23377;DHT22;14353;46.070;13.222;2023-01-16T10:31:50;18.40;53.30
23377;DHT22;14353;46.070;13.222;2023-01-16T10:34:46;18.40;53.40
23377;DHT22;14353;46.070;13.222;2023-01-16T10:37:17;18.40;53.40
23377;DHT22;14353;46.070;13.222;2023-01-16T10:39:43;18.40;53.40
23377;DHT22;14353;46.070;13.222;2023-01-16T10:42:14;18.40;53.50
23377;DHT22;14353;46.070;13.222;2023-01-16T10:47:53;18.40;53.50
23377;DHT22;14353;46.070;13.222;2023-01-16T10:50:39;18.40;53.40
23377;DHT22;14353;46.070;13.222;2023-01-16T10:53:06;18.40;53.30
23377;DHT22;14353;46.070;13.222;2023-01-16T10:55:33;18.40;54.00
23377;DHT22;14353;46.070;13.222;2023-01-16T10:58:06;18.40;53.20
23377;DHT22;14353;46.070;13.222;2023-01-16T11:00:35;18.50;53.30
23377;DHT22;14353;46.070;13.222;2023-01-16T11:08:34;18.50;52.90
23377;DHT22;14353;46.070;13.222;2023-01-16T11:11:01;18.50;52.80
23377;DHT22;14353;46.070;13.222;2023-01-16T11:13:28;18.50;52.70
23377;DHT22;14353;46.070;13.222;2023-01-16T11:19:22;18.50;52.50
23377;DHT22;14353;46.070;13.222;2023-01-16T11:21:54;18.60;52.50
23377;DHT22;14353;46.070;13.222;2023-01-16T11:24:29;18.60;52.50
23377;DHT22;14353;46.070;13.222;2023-01-16T11:26:55;18.50;52.40
23377;DHT22;14353;46.070;13.222;2023-01-16T11:29:26;18.60;52.40
23377;DHT22;14353;46.070;13.222;2023-01-16T11:32:05;18.60;52.30
23377;DHT22;14353;46.070;13.222;2023-01-16T11:34:32;18.60;52.20
23377;DHT22;14353;46.070;13.222;2023-01-16T11:37:01;18.50;52.10
23377;DHT22;14353;46.070;13.222;2023-01-16T11:39:30;18.60;52.10
23377;DHT22;14353;46.070;13.222;2023-01-16T11:42:00;18.60;52.00
23377;DHT22;14353;46.070;13.222;2023-01-16T11:44:48;18.60;52.00
23377;DHT22;14353;46.070;13.222;2023-01-16T11:47:41;18.50;52.00
23377;DHT22;14353;46.070;13.222;2023-01-16T11:52:51;18.60;51.90
23377;DHT22;14353;46.070;13.222;2023-01-16T11:55:16;18.60;51.80
23377;DHT22;14353;46.070;13.222;2023-01-16T11:58:11;18.60;51.80
23377;DHT22;14353;46.070;13.222;2023-01-16T12:09:05;18.60;51.80
23377;DHT22;14353;46.070;13.222;2023-01-16T12:11:59;18.60;51.90
23377;DHT22;14353;46.070;13.222;2023-01-16T12:14:59;18.60;52.00
23377;DHT22;14353;46.070;13.222;2023-01-16T12:20:39;18.70;52.00
23377;DHT22;14353;46.070;13.222;2023-01-16T12:28:59;18.80;52.00
23377;DHT22;14353;46.070;13.222;2023-01-16T13:04:41;18.90;49.90
23377;DHT22;14353;46.070;13.222;2023-01-16T13:07:14;18.90;48.90
23377;DHT22;14353;46.070;13.222;2023-01-16T13:10:11;18.90;48.00
23377;DHT22;14353;46.070;13.222;2023-01-16T13:13:00;18.80;47.40
23377;DHT22;14353;46.070;13.222;2023-01-16T13:15:47;18.80;46.80
23377;DHT22;14353;46.070;13.222;2023-01-16T13:18:37;18.80;46.40
23377;DHT22;14353;46.070;13.222;2023-01-16T13:21:07;18.70;46.10
23377;DHT22;14353;46.070;13.222;2023-01-16T13:23:40;18.60;45.90
23377;DHT22;14353;46.070;13.222;2023-01-16T13:26:10;18.60;45.70
23377;DHT22;14353;46.070;13.222;2023-01-16T13:28:48;18.60;45.50
23377;DHT22;14353;46.070;13.222;2023-01-16T13:33:53;18.50;45.10
23377;DHT22;14353;46.070;13.222;2023-01-16T13:41:50;18.40;45.10
23377;DHT22;14353;46.070;13.222;2023-01-16T13:44:29;18.40;45.60
23377;DHT22;14353;46.070;13.222;2023-01-16T13:47:20;18.40;45.80
23377;DHT22;14353;46.070;13.222;2023-01-16T13:49:55;18.40;46.20
23377;DHT22;14353;46.070;13.222;2023-01-16T13:52:26;18.40;45.70
23377;DHT22;14353;46.070;13.222;2023-01-16T13:54:58;18.40;45.60
23377;DHT22;14353;46.070;13.222;2023-01-16T13:57:25;18.40;45.80
23377;DHT22;14353;46.070;13.222;2023-01-16T13:59:53;18.40;45.80
23377;DHT22;14353;46.070;13.222;2023-01-16T14:03:00;18.40;45.90
23377;DHT22;14353;46.070;13.222;2023-01-16T14:08:20;18.40;46.30
23377;DHT22;14353;46.070;13.222;2023-01-16T14:11:33;18.40;46.20
23377;DHT22;14353;46.070;13.222;2023-01-16T14:14:27;18.40;45.90
23377;DHT22;14353;46.070;13.222;2023-01-16T14:17:12;18.40;46.10
23377;DHT22;14353;46.070;13.222;2023-01-16T14:22:25;18.30;46.10
23377;DHT22;14353;46.070;13.222;2023-01-16T14:24:57;18.30;46.20
23377;DHT22;14353;46.070;13.222;2023-01-16T14:27:36;18.30;46.30
23377;DHT22;14353;46.070;13.222;2023-01-16T14:30:06;18.30;46.40
23377;DHT22;14353;46.070;13.222;2023-01-16T14:32:34;18.30;46.70
23377;DHT22;14353;46.070;13.222;2023-01-16T14:35:20;18.30;46.60
23377;DHT22;14353;46.070;13.222;2023-01-16T14:37:57;18.30;46.40
23377;DHT22;14353;46.070;13.222;2023-01-16T14:40:27;18.30;46.20
23377;DHT22;14353;46.070;13.222;2023-01-16T14:43:31;18.30;46.20
23377;DHT22;14353;46.070;13.222;2023-01-16T14:58:08;18.30;46.20
23377;DHT22;14353;46.070;13.222;2023-01-16T15:00:36;18.30;46.20
23377;DHT22;14353;46.070;13.222;2023-01-16T15:03:12;18.30;46.20
23377;DHT22;14353;46.070;13.222;2023-01-16T15:05:48;18.30;46.10
23377;DHT22;14353;46.070;13.222;2023-01-16T15:08:21;18.30;46.20
23377;DHT22;14353;46.070;13.222;2023-01-16T15:10:50;18.30;46.20
23377;DHT22;14353;46.070;13.222;2023-01-16T15:13:30;18.30;46.50
23377;DHT22;14353;46.070;13.222;2023-01-16T15:16:21;18.30;46.50
23377;DHT22;14353;46.070;13.222;2023-01-16T15:19:18;18.30;47.00
23377;DHT22;14353;46.070;13.222;2023-01-16T15:22:14;18.30;47.50
23377;DHT22;14353;46.070;13.222;2023-01-16T15:24:42;18.30;45.40
23377;DHT22;14353;46.070;13.222;2023-01-16T15:27:21;18.30;45.80
23377;DHT22;14353;46.070;13.222;2023-01-16T15:30:07;18.30;48.00
23377;DHT22;14353;46.070;13.222;2023-01-16T15:32:57;18.30;48.70
23377;DHT22;14353;46.070;13.222;2023-01-16T15:35:42;18.30;48.90
23377;DHT22;14353;46.070;13.222;2023-01-16T15:38:09;18.30;48.80
23377;DHT22;14353;46.070;13.222;2023-01-16T15:40:35;18.40;48.80
23377;DHT22;14353;46.070;13.222;2023-01-16T15:43:02;18.40;48.70
23377;DHT22;14353;46.070;13.222;2023-01-16T15:46:06;18.40;48.70
23377;DHT22;14353;46.070;13.222;2023-01-16T15:49:27;18.40;48.60
23377;DHT22;14353;46.070;13.222;2023-01-16T15:51:55;18.40;48.50
23377;DHT22;14353;46.070;13.222;2023-01-16T15:54:22;18.40;48.50
23377;DHT22;14353;46.070;13.222;2023-01-16T15:56:48;18.50;48.40
23377;DHT22;14353;46.070;13.222;2023-01-16T15:59:26;18.50;48.40
23377;DHT22;14353;46.070;13.222;2023-01-16T16:01:53;18.40;48.30
23377;DHT22;14353;46.070;13.222;2023-01-16T16:04:20;18.40;47.20
23377;DHT22;14353;46.070;13.222;2023-01-16T16:06:47;18.50;48.10
23377;DHT22;14353;46.070;13.222;2023-01-16T16:09:19;18.50;48.50
23377;DHT22;14353;46.070;13.222;2023-01-16T16:11:51;18.50;48.60
23377;DHT22;14353;46.070;13.222;2023-01-16T16:14:23;18.50;48.70
23377;DHT22;14353;46.070;13.222;2023-01-16T16:17:23;18.50;48.80
23377;DHT22;14353;46.070;13.222;2023-01-16T16:20:34;18.50;48.90
23377;DHT22;14353;46.070;13.222;2023-01-16T16:23:18;18.50;48.90
23377;DHT22;14353;46.070;13.222;2023-01-16T16:25:48;18.50;48.90
23377;DHT22;14353;46.070;13.222;2023-01-16T16:28:36;18.50;48.70
23377;DHT22;14353;46.070;13.222;2023-01-16T16:31:31;18.50;48.50
23377;DHT22;14353;46.070;13.222;2023-01-16T16:34:21;18.50;48.30
23377;DHT22;14353;46.070;13.222;2023-01-16T16:36:55;18.50;48.20
23377;DHT22;14353;46.070;13.222;2023-01-16T16:41:59;18.50;48.00
23377;DHT22;14353;46.070;13.222;2023-01-16T16:47:38;18.50;47.90
23377;DHT22;14353;46.070;13.222;2023-01-16T16:51:09;18.50;47.80
23377;DHT22;14353;46.070;13.222;2023-01-16T16:53:25;18.50;47.70
23377;DHT22;14353;46.070;13.222;2023-01-16T16:56:09;18.50;47.70
23377;DHT22;14353;46.070;13.222;2023-01-16T16:58:42;18.50;47.80
23377;DHT22;14353;46.070;13.222;2023-01-16T17:01:17;18.50;47.80
23377;DHT22;14353;46.070;13.222;2023-01-16T17:03:44;18.50;47.80
23377;DHT22;14353;46.070;13.222;2023-01-16T17:06:18;18.40;47.70
23377;DHT22;14353;46.070;13.222;2023-01-16T17:08:45;18.50;47.80
23377;DHT22;14353;46.070;13.222;2023-01-16T17:11:11;18.50;47.70
23377;DHT22;14353;46.070;13.222;2023-01-16T17:13:37;18.50;47.70
23377;DHT22;14353;46.070;13.222;2023-01-16T17:16:03;18.50;47.70
23377;DHT22;14353;46.070;13.222;2023-01-16T17:18:31;18.50;47.70
23377;DHT22;14353;46.070;13.222;2023-01-16T17:20:57;18.50;47.70
23377;DHT22;14353;46.070;13.222;2023-01-16T17:23:23;18.50;47.70
23377;DHT22;14353;46.070;13.222;2023-01-16T17:25:51;18.50;47.70
23377;DHT22;14353;46.070;13.222;2023-01-16T17:28:17;18.50;47.70
23377;DHT22;14353;46.070;13.222;2023-01-16T17:30:42;18.60;47.80
23377;DHT22;14353;46.070;13.222;2023-01-16T17:35:40;18.60;47.60
23377;DHT22;14353;46.070;13.222;2023-01-16T17:38:12;18.60;47.60
23377;DHT22;14353;46.070;13.222;2023-01-16T17:40:38;18.60;47.60
23377;DHT22;14353;46.070;13.222;2023-01-16T17:43:04;18.60;47.60
23377;DHT22;14353;46.070;13.222;2023-01-16T17:45:51;18.60;47.60
23377;DHT22;14353;46.070;13.222;2023-01-16T17:48:21;18.60;47.60
23377;DHT22;14353;46.070;13.222;2023-01-16T17:50:47;18.60;47.60
23377;DHT22;14353;46.070;13.222;2023-01-16T17:53:18;18.60;47.60
23377;DHT22;14353;46.070;13.222;2023-01-16T17:55:46;18.60;47.70
23377;DHT22;14353;46.070;13.222;2023-01-16T17:58:26;18.60;48.30
23377;DHT22;14353;46.070;13.222;2023-01-16T18:01:05;18.60;47.70
23377;DHT22;14353;46.070;13.222;2023-01-16T18:03:32;18.60;47.70
23377;DHT22;14353;46.070;13.222;2023-01-16T18:06:03;18.60;47.70
23377;DHT22;14353;46.070;13.222;2023-01-16T18:08:30;18.60;47.70
23377;DHT22;14353;46.070;13.222;2023-01-16T18:10:58;18.60;47.80
23377;DHT22;14353;46.070;13.222;2023-01-16T18:13:24;18.60;47.80
23377;DHT22;14353;46.070;13.222;2023-01-16T18:16:14;18.60;47.80
23377;DHT22;14353;46.070;13.222;2023-01-16T18:18:59;18.60;47.70
23377;DHT22;14353;46.070;13.222;2023-01-16T18:21:25;18.60;47.70
23377;DHT22;14353;46.070;13.222;2023-01-16T18:24:09;18.60;47.70
23377;DHT22;14353;46.070;13.222;2023-01-16T18:26:34;18.60;47.70
23377;DHT22;14353;46.070;13.222;2023-01-16T18:29:00;18.60;47.60
23377;DHT22;14353;46.070;13.222;2023-01-16T18:31:26;18.60;47.70